sensor_id;sensor_type;location;lat;lon;timestamp;P1;durP1;ratioP1;P2;durP2;ratioP2
22715;SDS011;11525;51.152;4.456;2023-04-01T00:00:56;7.90;;;3.58;;
22715;SDS011;11525;51.152;4.456;2023-04-01T00:03:24;8.43;;;3.45;;
22715;SDS011;11525;51.152;4.456;2023-04-01T00:05:52;7.68;;;2.78;;
22715;SDS011;11525;51.152;4.456;2023-04-01T00:08:21;8.52;;;2.83;;
22715;SDS011;11525;51.152;4.456;2023-04-01T00:10:47;7.60;;;3.03;;
22715;SDS011;11525;51.152;4.456;2023-04-01T00:13:13;5.47;;;3.35;;
22715;SDS011;11525;51.152;4.456;2023-04-01T00:15:39;7.65;;;4.00;;
22715;SDS011;11525;51.152;4.456;2023-04-01T00:18:06;9.40;;;4.45;;
22715;SDS011;11525;51.152;4.456;2023-04-01T00:20:32;9.93;;;4.82;;
22715;SDS011;11525;51.152;4.456;2023-04-01T00:22:58;13.18;;;4.43;;
22715;SDS011;11525;51.152;4.456;2023-04-01T00:25:24;11.63;;;4.90;;
22715;SDS011;11525;51.152;4.456;2023-04-01T00:27:50;7.72;;;4.90;;
22715;SDS011;11525;51.152;4.456;2023-04-01T00:30:16;11.80;;;5.18;;
22715;SDS011;11525;51.152;4.456;2023-04-01T00:32:42;13.57;;;5.53;;
22715;SDS011;11525;51.152;4.456;2023-04-01T00:35:08;10.25;;;5.10;;
22715;SDS011;11525;51.152;4.456;2023-04-01T00:37:35;10.07;;;4.15;;
22715;SDS011;11525;51.152;4.456;2023-04-01T00:40:06;10.40;;;5.88;;
22715;SDS011;11525;51.152;4.456;2023-04-01T00:42:33;11.05;;;5.00;;
22715;SDS011;11525;51.152;4.456;2023-04-01T00:44:58;10.70;;;5.55;;
22715;SDS011;11525;51.152;4.456;2023-04-01T00:47:52;11.43;;;7.00;;
22715;SDS011;11525;51.152;4.456;2023-04-01T00:50:18;17.08;;;6.07;;
22715;SDS011;11525;51.152;4.456;2023-04-01T00:52:44;19.55;;;6.78;;
22715;SDS011;11525;51.152;4.456;2023-04-01T00:55:11;11.50;;;6.53;;
22715;SDS011;11525;51.152;4.456;2023-04-01T00:57:40;15.75;;;8.05;;
22715;SDS011;11525;51.152;4.456;2023-04-01T01:00:09;14.30;;;8.40;;
22715;SDS011;11525;51.152;4.456;2023-04-01T01:02:38;17.33;;;8.65;;
22715;SDS011;11525;51.152;4.456;2023-04-01T01:05:07;16.00;;;8.27;;
22715;SDS011;11525;51.152;4.456;2023-04-01T01:07:59;14.82;;;8.55;;
22715;SDS011;11525;51.152;4.456;2023-04-01T01:10:40;16.08;;;8.50;;
22715;SDS011;11525;51.152;4.456;2023-04-01T01:13:17;20.08;;;8.88;;
22715;SDS011;11525;51.152;4.456;2023-04-01T01:16:09;16.80;;;8.93;;
22715;SDS011;11525;51.152;4.456;2023-04-01T01:32:17;12.68;;;7.80;;
22715;SDS011;11525;51.152;4.456;2023-04-01T01:37:53;13.52;;;5.97;;
22715;SDS011;11525;51.152;4.456;2023-04-01T01:40:22;13.30;;;6.38;;
22715;SDS011;11525;51.152;4.456;2023-04-01T01:42:50;10.23;;;6.97;;
22715;SDS011;11525;51.152;4.456;2023-04-01T01:45:20;13.32;;;7.53;;
22715;SDS011;11525;51.152;4.456;2023-04-01T01:47:48;10.10;;;6.82;;
22715;SDS011;11525;51.152;4.456;2023-04-01T01:50:16;10.32;;;6.35;;
22715;SDS011;11525;51.152;4.456;2023-04-01T01:52:43;15.98;;;8.25;;
22715;SDS011;11525;51.152;4.456;2023-04-01T01:55:30;19.50;;;9.23;;
22715;SDS011;11525;51.152;4.456;2023-04-01T01:57:59;15.43;;;8.20;;
22715;SDS011;11525;51.152;4.456;2023-04-01T02:00:30;14.45;;;9.00;;
22715;SDS011;11525;51.152;4.456;2023-04-01T02:02:57;16.58;;;7.50;;
22715;SDS011;11525;51.152;4.456;2023-04-01T02:05:24;13.68;;;7.20;;
22715;SDS011;11525;51.152;4.456;2023-04-01T02:07:55;12.98;;;6.72;;
22715;SDS011;11525;51.152;4.456;2023-04-01T02:10:35;10.77;;;5.82;;
22715;SDS011;11525;51.152;4.456;2023-04-01T02:13:07;11.10;;;5.35;;
22715;SDS011;11525;51.152;4.456;2023-04-01T02:15:41;6.95;;;5.43;;
22715;SDS011;11525;51.152;4.456;2023-04-01T02:18:11;12.77;;;6.82;;
22715;SDS011;11525;51.152;4.456;2023-04-01T02:20:40;8.88;;;5.97;;
22715;SDS011;11525;51.152;4.456;2023-04-01T02:23:07;9.73;;;6.20;;
22715;SDS011;11525;51.152;4.456;2023-04-01T02:25:35;8.57;;;5.82;;
22715;SDS011;11525;51.152;4.456;2023-04-01T02:28:03;11.13;;;6.28;;
22715;SDS011;11525;51.152;4.456;2023-04-01T02:30:32;7.68;;;5.07;;
22715;SDS011;11525;51.152;4.456;2023-04-01T02:33:00;11.23;;;5.50;;
22715;SDS011;11525;51.152;4.456;2023-04-01T02:35:28;9.15;;;5.13;;
22715;SDS011;11525;51.152;4.456;2023-04-01T02:37:54;8.57;;;5.40;;
22715;SDS011;11525;51.152;4.456;2023-04-01T02:40:20;11.90;;;6.65;;
22715;SDS011;11525;51.152;4.456;2023-04-01T02:42:47;8.13;;;6.47;;
22715;SDS011;11525;51.152;4.456;2023-04-01T02:45:13;8.45;;;6.75;;
22715;SDS011;11525;51.152;4.456;2023-04-01T02:47:39;7.78;;;4.95;;
22715;SDS011;11525;51.152;4.456;2023-04-01T02:50:05;9.95;;;5.63;;
22715;SDS011;11525;51.152;4.456;2023-04-01T02:52:32;8.38;;;5.97;;
22715;SDS011;11525;51.152;4.456;2023-04-01T02:55:00;12.95;;;7.57;;
22715;SDS011;11525;51.152;4.456;2023-04-01T02:57:27;11.90;;;7.35;;
22715;SDS011;11525;51.152;4.456;2023-04-01T02:59:52;12.30;;;7.47;;
22715;SDS011;11525;51.152;4.456;2023-04-01T03:02:18;9.73;;;6.63;;
22715;SDS011;11525;51.152;4.456;2023-04-01T03:04:44;9.40;;;6.80;;
22715;SDS011;11525;51.152;4.456;2023-04-01T03:07:10;10.70;;;7.43;;
22715;SDS011;11525;51.152;4.456;2023-04-01T03:09:37;9.25;;;6.75;;
22715;SDS011;11525;51.152;4.456;2023-04-01T03:12:03;8.27;;;6.75;;
22715;SDS011;11525;51.152;4.456;2023-04-01T03:14:30;9.55;;;6.55;;
22715;SDS011;11525;51.152;4.456;2023-04-01T03:16:55;9.65;;;5.88;;
22715;SDS011;11525;51.152;4.456;2023-04-01T03:19:21;9.25;;;4.80;;
22715;SDS011;11525;51.152;4.456;2023-04-01T03:21:47;8.50;;;4.93;;
22715;SDS011;11525;51.152;4.456;2023-04-01T03:24:12;8.68;;;5.57;;
22715;SDS011;11525;51.152;4.456;2023-04-01T03:26:38;8.07;;;6.03;;
22715;SDS011;11525;51.152;4.456;2023-04-01T03:29:04;8.05;;;6.07;;
22715;SDS011;11525;51.152;4.456;2023-04-01T03:31:30;8.90;;;5.93;;
22715;SDS011;11525;51.152;4.456;2023-04-01T03:33:56;8.65;;;5.47;;
22715;SDS011;11525;51.152;4.456;2023-04-01T03:36:22;8.50;;;5.22;;
22715;SDS011;11525;51.152;4.456;2023-04-01T03:38:47;6.07;;;4.63;;
22715;SDS011;11525;51.152;4.456;2023-04-01T03:41:16;6.50;;;4.63;;
22715;SDS011;11525;51.152;4.456;2023-04-01T03:43:43;9.68;;;6.00;;
22715;SDS011;11525;51.152;4.456;2023-04-01T03:46:09;8.77;;;6.65;;
22715;SDS011;11525;51.152;4.456;2023-04-01T03:48:35;9.88;;;5.95;;
22715;SDS011;11525;51.152;4.456;2023-04-01T03:51:01;8.00;;;5.45;;
22715;SDS011;11525;51.152;4.456;2023-04-01T03:53:31;8.68;;;6.63;;
22715;SDS011;11525;51.152;4.456;2023-04-01T03:55:57;9.00;;;6.95;;
22715;SDS011;11525;51.152;4.456;2023-04-01T03:58:22;15.50;;;7.28;;
22715;SDS011;11525;51.152;4.456;2023-04-01T04:00:48;14.68;;;8.18;;
22715;SDS011;11525;51.152;4.456;2023-04-01T04:03:14;11.05;;;7.32;;
22715;SDS011;11525;51.152;4.456;2023-04-01T04:05:46;11.57;;;8.27;;
22715;SDS011;11525;51.152;4.456;2023-04-01T04:08:15;13.68;;;8.25;;
22715;SDS011;11525;51.152;4.456;2023-04-01T04:10:41;12.52;;;8.20;;
22715;SDS011;11525;51.152;4.456;2023-04-01T04:13:07;11.65;;;7.30;;
22715;SDS011;11525;51.152;4.456;2023-04-01T04:15:32;14.68;;;9.30;;
22715;SDS011;11525;51.152;4.456;2023-04-01T04:17:58;14.38;;;9.27;;
22715;SDS011;11525;51.152;4.456;2023-04-01T04:20:24;18.60;;;8.52;;
22715;SDS011;11525;51.152;4.456;2023-04-01T04:22:50;16.75;;;10.10;;
22715;SDS011;11525;51.152;4.456;2023-04-01T04:25:15;10.43;;;8.25;;
22715;SDS011;11525;51.152;4.456;2023-04-01T04:27:41;13.07;;;7.78;;
22715;SDS011;11525;51.152;4.456;2023-04-01T04:30:07;12.27;;;7.93;;
22715;SDS011;11525;51.152;4.456;2023-04-01T04:32:34;11.90;;;8.18;;
22715;SDS011;11525;51.152;4.456;2023-04-01T04:35:00;18.42;;;8.80;;
22715;SDS011;11525;51.152;4.456;2023-04-01T04:37:26;11.82;;;8.57;;
22715;SDS011;11525;51.152;4.456;2023-04-01T04:39:51;13.82;;;9.23;;
22715;SDS011;11525;51.152;4.456;2023-04-01T04:42:17;11.15;;;8.15;;
22715;SDS011;11525;51.152;4.456;2023-04-01T04:44:43;16.70;;;9.65;;
22715;SDS011;11525;51.152;4.456;2023-04-01T04:47:09;13.60;;;8.07;;
22715;SDS011;11525;51.152;4.456;2023-04-01T04:49:35;10.68;;;8.13;;
22715;SDS011;11525;51.152;4.456;2023-04-01T04:52:00;13.15;;;8.80;;
22715;SDS011;11525;51.152;4.456;2023-04-01T04:54:26;11.25;;;8.50;;
22715;SDS011;11525;51.152;4.456;2023-04-01T04:56:52;12.68;;;8.02;;
22715;SDS011;11525;51.152;4.456;2023-04-01T04:59:18;9.65;;;7.32;;
22715;SDS011;11525;51.152;4.456;2023-04-01T05:01:44;11.60;;;7.10;;
22715;SDS011;11525;51.152;4.456;2023-04-01T05:04:10;10.90;;;7.50;;
22715;SDS011;11525;51.152;4.456;2023-04-01T05:06:36;9.18;;;6.65;;
22715;SDS011;11525;51.152;4.456;2023-04-01T05:09:01;9.00;;;6.55;;
22715;SDS011;11525;51.152;4.456;2023-04-01T05:11:27;9.70;;;6.45;;
22715;SDS011;11525;51.152;4.456;2023-04-01T05:13:53;9.30;;;5.10;;
22715;SDS011;11525;51.152;4.456;2023-04-01T05:16:19;10.25;;;5.65;;
22715;SDS011;11525;51.152;4.456;2023-04-01T05:18:46;6.82;;;5.72;;
22715;SDS011;11525;51.152;4.456;2023-04-01T05:21:12;10.23;;;6.30;;
22715;SDS011;11525;51.152;4.456;2023-04-01T05:23:39;10.70;;;5.30;;
22715;SDS011;11525;51.152;4.456;2023-04-01T05:26:07;11.07;;;5.97;;
22715;SDS011;11525;51.152;4.456;2023-04-01T05:28:35;9.40;;;5.50;;
22715;SDS011;11525;51.152;4.456;2023-04-01T05:31:02;7.43;;;5.57;;
22715;SDS011;11525;51.152;4.456;2023-04-01T05:33:29;8.77;;;4.88;;
22715;SDS011;11525;51.152;4.456;2023-04-01T05:35:55;6.65;;;5.40;;
22715;SDS011;11525;51.152;4.456;2023-04-01T05:38:21;14.43;;;6.15;;
22715;SDS011;11525;51.152;4.456;2023-04-01T05:40:47;6.78;;;4.88;;
22715;SDS011;11525;51.152;4.456;2023-04-01T05:43:13;9.23;;;5.25;;
22715;SDS011;11525;51.152;4.456;2023-04-01T05:45:39;6.78;;;5.55;;
22715;SDS011;11525;51.152;4.456;2023-04-01T05:48:04;8.07;;;5.72;;
22715;SDS011;11525;51.152;4.456;2023-04-01T05:50:30;7.22;;;4.63;;
22715;SDS011;11525;51.152;4.456;2023-04-01T05:52:56;9.13;;;6.32;;
22715;SDS011;11525;51.152;4.456;2023-04-01T05:55:22;7.78;;;5.03;;
22715;SDS011;11525;51.152;4.456;2023-04-01T05:57:48;8.75;;;5.25;;
22715;SDS011;11525;51.152;4.456;2023-04-01T06:00:15;7.95;;;4.50;;
22715;SDS011;11525;51.152;4.456;2023-04-01T06:02:42;6.55;;;5.20;;
22715;SDS011;11525;51.152;4.456;2023-04-01T06:07:40;5.38;;;3.88;;
22715;SDS011;11525;51.152;4.456;2023-04-01T06:10:28;4.88;;;3.78;;
22715;SDS011;11525;51.152;4.456;2023-04-01T06:18:52;5.95;;;3.05;;
22715;SDS011;11525;51.152;4.456;2023-04-01T06:21:43;4.30;;;3.88;;
22715;SDS011;11525;51.152;4.456;2023-04-01T06:33:08;6.45;;;4.38;;
22715;SDS011;11525;51.152;4.456;2023-04-01T06:38:35;7.80;;;4.97;;
22715;SDS011;11525;51.152;4.456;2023-04-01T06:41:37;6.47;;;4.28;;
22715;SDS011;11525;51.152;4.456;2023-04-01T06:52:26;3.75;;;3.28;;
22715;SDS011;11525;51.152;4.456;2023-04-01T06:55:24;5.95;;;3.28;;
22715;SDS011;11525;51.152;4.456;2023-04-01T06:58:06;7.07;;;3.95;;
22715;SDS011;11525;51.152;4.456;2023-04-01T07:00:52;3.78;;;3.38;;
22715;SDS011;11525;51.152;4.456;2023-04-01T07:03:23;7.63;;;3.15;;
22715;SDS011;11525;51.152;4.456;2023-04-01T07:05:58;3.83;;;3.13;;
22715;SDS011;11525;51.152;4.456;2023-04-01T07:08:30;4.88;;;3.20;;
22715;SDS011;11525;51.152;4.456;2023-04-01T07:11:02;4.35;;;3.92;;
22715;SDS011;11525;51.152;4.456;2023-04-01T07:13:36;6.05;;;3.63;;
22715;SDS011;11525;51.152;4.456;2023-04-01T07:16:15;4.57;;;3.88;;
22715;SDS011;11525;51.152;4.456;2023-04-01T07:21:30;5.05;;;3.97;;
22715;SDS011;11525;51.152;4.456;2023-04-01T07:23:59;4.53;;;3.50;;
22715;SDS011;11525;51.152;4.456;2023-04-01T07:26:30;3.35;;;3.05;;
22715;SDS011;11525;51.152;4.456;2023-04-01T07:28:57;6.97;;;3.83;;
22715;SDS011;11525;51.152;4.456;2023-04-01T07:34:28;5.75;;;3.47;;
22715;SDS011;11525;51.152;4.456;2023-04-01T07:37:15;5.95;;;3.50;;
22715;SDS011;11525;51.152;4.456;2023-04-01T07:42:36;3.88;;;2.80;;
22715;SDS011;11525;51.152;4.456;2023-04-01T08:04:50;3.58;;;3.22;;
22715;SDS011;11525;51.152;4.456;2023-04-01T08:07:25;7.80;;;3.05;;
22715;SDS011;11525;51.152;4.456;2023-04-01T08:13:11;3.47;;;2.72;;
22715;SDS011;11525;51.152;4.456;2023-04-01T08:18:31;3.80;;;3.03;;
22715;SDS011;11525;51.152;4.456;2023-04-01T08:21:12;2.85;;;1.75;;
22715;SDS011;11525;51.152;4.456;2023-04-01T08:23:46;2.42;;;1.90;;
22715;SDS011;11525;51.152;4.456;2023-04-01T08:26:34;1.58;;;1.30;;
22715;SDS011;11525;51.152;4.456;2023-04-01T08:34:25;2.75;;;1.63;;
22715;SDS011;11525;51.152;4.456;2023-04-01T08:37:08;1.92;;;1.80;;
22715;SDS011;11525;51.152;4.456;2023-04-01T08:39:45;2.22;;;2.05;;
22715;SDS011;11525;51.152;4.456;2023-04-01T08:53:36;3.03;;;2.60;;
22715;SDS011;11525;51.152;4.456;2023-04-01T09:19:14;2.45;;;2.25;;
22715;SDS011;11525;51.152;4.456;2023-04-01T09:22:15;2.70;;;2.50;;
22715;SDS011;11525;51.152;4.456;2023-04-01T09:25:05;4.30;;;2.58;;
22715;SDS011;11525;51.152;4.456;2023-04-01T09:27:43;3.70;;;2.60;;
22715;SDS011;11525;51.152;4.456;2023-04-01T09:41:29;3.80;;;3.50;;
22715;SDS011;11525;51.152;4.456;2023-04-01T10:34:52;5.18;;;2.47;;
22715;SDS011;11525;51.152;4.456;2023-04-01T10:45:45;4.22;;;2.85;;
22715;SDS011;11525;51.152;4.456;2023-04-01T10:53:33;3.10;;;2.75;;
22715;SDS011;11525;51.152;4.456;2023-04-01T11:13:42;4.80;;;3.08;;
22715;SDS011;11525;51.152;4.456;2023-04-01T11:24:31;9.85;;;3.90;;
22715;SDS011;11525;51.152;4.456;2023-04-01T11:27:13;6.57;;;4.25;;
22715;SDS011;11525;51.152;4.456;2023-04-01T11:32:58;7.13;;;3.97;;
22715;SDS011;11525;51.152;4.456;2023-04-01T11:50:04;4.93;;;3.45;;
22715;SDS011;11525;51.152;4.456;2023-04-01T12:00:41;9.23;;;4.75;;
22715;SDS011;11525;51.152;4.456;2023-04-01T12:06:21;6.63;;;5.10;;
22715;SDS011;11525;51.152;4.456;2023-04-01T12:09:28;6.38;;;4.68;;
22715;SDS011;11525;51.152;4.456;2023-04-01T12:20:54;7.05;;;4.15;;
22715;SDS011;11525;51.152;4.456;2023-04-01T12:26:43;6.70;;;4.53;;
22715;SDS011;11525;51.152;4.456;2023-04-01T12:29:54;6.15;;;4.00;;
22715;SDS011;11525;51.152;4.456;2023-04-01T12:32:41;5.22;;;4.13;;
22715;SDS011;11525;51.152;4.456;2023-04-01T12:38:14;7.13;;;3.88;;
22715;SDS011;11525;51.152;4.456;2023-04-01T12:44:23;3.80;;;3.30;;
22715;SDS011;11525;51.152;4.456;2023-04-01T13:00:18;2.95;;;2.22;;
22715;SDS011;11525;51.152;4.456;2023-04-01T13:13:52;5.30;;;2.58;;
22715;SDS011;11525;51.152;4.456;2023-04-01T13:16:24;3.85;;;3.45;;
22715;SDS011;11525;51.152;4.456;2023-04-01T13:21:54;8.43;;;5.15;;
22715;SDS011;11525;51.152;4.456;2023-04-01T13:29:57;5.00;;;4.50;;
22715;SDS011;11525;51.152;4.456;2023-04-01T13:43:42;6.25;;;4.97;;
22715;SDS011;11525;51.152;4.456;2023-04-01T13:49:21;5.85;;;4.70;;
22715;SDS011;11525;51.152;4.456;2023-04-01T14:08:48;5.82;;;5.18;;
22715;SDS011;11525;51.152;4.456;2023-04-01T14:11:38;6.07;;;5.30;;
22715;SDS011;11525;51.152;4.456;2023-04-01T14:14:21;6.60;;;4.68;;
22715;SDS011;11525;51.152;4.456;2023-04-01T14:25:20;6.82;;;4.47;;
22715;SDS011;11525;51.152;4.456;2023-04-01T14:28:03;5.07;;;4.15;;
22715;SDS011;11525;51.152;4.456;2023-04-01T14:35:58;5.60;;;4.95;;
22715;SDS011;11525;51.152;4.456;2023-04-01T14:41:48;2.85;;;2.60;;
22715;SDS011;11525;51.152;4.456;2023-04-01T14:47:09;3.38;;;2.10;;
22715;SDS011;11525;51.152;4.456;2023-04-01T14:49:46;4.72;;;2.97;;
22715;SDS011;11525;51.152;4.456;2023-04-01T14:52:29;4.03;;;2.40;;
22715;SDS011;11525;51.152;4.456;2023-04-01T14:54:59;4.20;;;2.35;;
22715;SDS011;11525;51.152;4.456;2023-04-01T14:57:30;3.75;;;2.58;;
22715;SDS011;11525;51.152;4.456;2023-04-01T15:02:42;3.78;;;2.50;;
22715;SDS011;11525;51.152;4.456;2023-04-01T15:05:15;2.70;;;2.50;;
22715;SDS011;11525;51.152;4.456;2023-04-01T15:16:03;5.03;;;2.53;;
22715;SDS011;11525;51.152;4.456;2023-04-01T15:19:00;3.50;;;2.28;;
22715;SDS011;11525;51.152;4.456;2023-04-01T15:27:59;2.45;;;1.67;;
22715;SDS011;11525;51.152;4.456;2023-04-01T15:41:15;1.88;;;1.75;;
22715;SDS011;11525;51.152;4.456;2023-04-01T15:43:43;1.83;;;1.73;;
22715;SDS011;11525;51.152;4.456;2023-04-01T15:57:18;3.10;;;1.55;;
22715;SDS011;11525;51.152;4.456;2023-04-01T16:11:06;3.28;;;2.90;;
22715;SDS011;11525;51.152;4.456;2023-04-01T16:27:25;5.80;;;3.83;;
22715;SDS011;11525;51.152;4.456;2023-04-01T16:30:22;4.57;;;3.50;;
22715;SDS011;11525;51.152;4.456;2023-04-01T16:33:11;4.38;;;3.95;;
22715;SDS011;11525;51.152;4.456;2023-04-01T16:35:59;5.75;;;3.78;;
22715;SDS011;11525;51.152;4.456;2023-04-01T16:38:40;6.20;;;4.40;;
22715;SDS011;11525;51.152;4.456;2023-04-01T16:41:16;6.28;;;4.60;;
22715;SDS011;11525;51.152;4.456;2023-04-01T16:43:55;8.25;;;4.78;;
22715;SDS011;11525;51.152;4.456;2023-04-01T16:46:38;7.28;;;5.50;;
22715;SDS011;11525;51.152;4.456;2023-04-01T16:51:41;8.23;;;6.65;;
22715;SDS011;11525;51.152;4.456;2023-04-01T16:54:19;7.80;;;6.78;;
22715;SDS011;11525;51.152;4.456;2023-04-01T17:02:22;11.23;;;10.02;;
22715;SDS011;11525;51.152;4.456;2023-04-01T17:05:03;12.55;;;11.18;;
22715;SDS011;11525;51.152;4.456;2023-04-01T17:08:35;14.52;;;12.85;;
22715;SDS011;11525;51.152;4.456;2023-04-01T17:13:52;15.13;;;11.93;;
22715;SDS011;11525;51.152;4.456;2023-04-01T17:22:04;12.55;;;9.95;;
22715;SDS011;11525;51.152;4.456;2023-04-01T17:27:50;7.05;;;5.80;;
22715;SDS011;11525;51.152;4.456;2023-04-01T17:33:17;6.85;;;5.72;;
22715;SDS011;11525;51.152;4.456;2023-04-01T17:35:56;10.07;;;5.35;;
22715;SDS011;11525;51.152;4.456;2023-04-01T18:25:54;19.75;;;9.15;;
22715;SDS011;11525;51.152;4.456;2023-04-01T18:28:32;27.98;;;10.57;;
22715;SDS011;11525;51.152;4.456;2023-04-01T18:36:40;21.20;;;11.40;;
22715;SDS011;11525;51.152;4.456;2023-04-01T18:39:17;23.23;;;12.27;;
22715;SDS011;11525;51.152;4.456;2023-04-01T18:47:02;19.73;;;10.75;;
22715;SDS011;11525;51.152;4.456;2023-04-01T18:49:45;21.98;;;10.65;;
22715;SDS011;11525;51.152;4.456;2023-04-01T18:52:31;27.38;;;11.00;;
22715;SDS011;11525;51.152;4.456;2023-04-01T19:03:01;22.67;;;10.60;;
22715;SDS011;11525;51.152;4.456;2023-04-01T19:05:34;22.60;;;11.43;;
22715;SDS011;11525;51.152;4.456;2023-04-01T19:11:10;22.77;;;11.70;;
22715;SDS011;11525;51.152;4.456;2023-04-01T19:16:49;20.65;;;12.55;;
22715;SDS011;11525;51.152;4.456;2023-04-01T19:19:34;23.27;;;12.23;;
22715;SDS011;11525;51.152;4.456;2023-04-01T19:33:22;24.73;;;15.32;;
22715;SDS011;11525;51.152;4.456;2023-04-01T19:44:16;36.28;;;19.27;;
22715;SDS011;11525;51.152;4.456;2023-04-01T19:47:33;34.42;;;19.08;;
22715;SDS011;11525;51.152;4.456;2023-04-01T19:57:46;35.05;;;20.65;;
22715;SDS011;11525;51.152;4.456;2023-04-01T20:06:11;30.60;;;19.67;;
22715;SDS011;11525;51.152;4.456;2023-04-01T20:11:46;27.83;;;16.33;;
22715;SDS011;11525;51.152;4.456;2023-04-01T20:14:45;28.98;;;17.88;;
22715;SDS011;11525;51.152;4.456;2023-04-01T20:41:44;11.25;;;9.00;;
22715;SDS011;11525;51.152;4.456;2023-04-01T20:50:11;11.40;;;8.60;;
22715;SDS011;11525;51.152;4.456;2023-04-01T20:52:56;14.93;;;9.05;;
22715;SDS011;11525;51.152;4.456;2023-04-01T21:03:40;10.77;;;8.80;;
22715;SDS011;11525;51.152;4.456;2023-04-01T21:06:32;10.35;;;9.30;;
22715;SDS011;11525;51.152;4.456;2023-04-01T21:14:32;12.15;;;8.93;;
22715;SDS011;11525;51.152;4.456;2023-04-01T21:17:10;12.43;;;9.70;;
22715;SDS011;11525;51.152;4.456;2023-04-01T21:29:24;12.50;;;10.38;;
22715;SDS011;11525;51.152;4.456;2023-04-01T21:34:55;12.27;;;10.15;;
22715;SDS011;11525;51.152;4.456;2023-04-01T21:37:33;11.07;;;9.77;;
22715;SDS011;11525;51.152;4.456;2023-04-01T21:40:11;13.02;;;11.68;;
22715;SDS011;11525;51.152;4.456;2023-04-01T21:45:23;15.18;;;10.90;;
22715;SDS011;11525;51.152;4.456;2023-04-01T22:06:52;20.15;;;16.55;;
22715;SDS011;11525;51.152;4.456;2023-04-01T22:09:38;19.60;;;16.85;;
22715;SDS011;11525;51.152;4.456;2023-04-01T22:12:15;19.55;;;17.35;;
22715;SDS011;11525;51.152;4.456;2023-04-01T22:28:31;17.98;;;14.88;;
22715;SDS011;11525;51.152;4.456;2023-04-01T22:31:09;19.20;;;14.63;;
22715;SDS011;11525;51.152;4.456;2023-04-01T22:45:02;20.92;;;17.50;;
22715;SDS011;11525;51.152;4.456;2023-04-01T22:50:32;21.27;;;17.40;;
22715;SDS011;11525;51.152;4.456;2023-04-01T22:53:29;18.98;;;15.90;;
22715;SDS011;11525;51.152;4.456;2023-04-01T22:56:05;22.55;;;19.38;;
22715;SDS011;11525;51.152;4.456;2023-04-01T22:58:48;23.08;;;18.42;;
22715;SDS011;11525;51.152;4.456;2023-04-01T23:01:25;23.45;;;19.30;;
22715;SDS011;11525;51.152;4.456;2023-04-01T23:03:54;26.60;;;20.95;;
22715;SDS011;11525;51.152;4.456;2023-04-01T23:06:25;23.23;;;19.60;;
22715;SDS011;11525;51.152;4.456;2023-04-01T23:27:56;26.88;;;20.23;;
22715;SDS011;11525;51.152;4.456;2023-04-01T23:35:47;21.52;;;17.48;;
22715;SDS011;11525;51.152;4.456;2023-04-01T23:38:16;21.63;;;17.55;;
22715;SDS011;11525;51.152;4.456;2023-04-01T23:40:43;24.30;;;18.48;;
22715;SDS011;11525;51.152;4.456;2023-04-01T23:43:52;22.10;;;17.70;;
22715;SDS011;11525;51.152;4.456;2023-04-01T23:46:02;24.55;;;19.08;;
22715;SDS011;11525;51.152;4.456;2023-04-01T23:48:32;22.80;;;18.33;;
22715;SDS011;11525;51.152;4.456;2023-04-01T23:51:01;22.70;;;16.27;;
22715;SDS011;11525;51.152;4.456;2023-04-01T23:53:29;20.13;;;15.55;;
22715;SDS011;11525;51.152;4.456;2023-04-01T23:55:57;20.38;;;16.50;;
22715;SDS011;11525;51.152;4.456;2023-04-01T23:58:25;19.60;;;15.63;;
